METAR
METAR

METAR

METAR EPSY 271430Z 30007KT 9999 FEW012 BKN025 04/03 Q1017=
TAF EPSY 271430Z 2715/2724 31008KT 9999 BKN030 PROB30 TEMPO 2715/2718 6000 -SHRA BKN013 BKN020CB=
Ostrzeżenia
Ostrzeżenia

Ostrzeżenia

OSTRZEZENIE LOTNISKOWE DLA LOTNISKA SZYMANY WAZNOSC OD: 18:15 26-11-2020 UTC DO: 07:00 27-11-2020 UTC ZJAWISKO: NISKA PODSTAWA CHMUR, SLABA WIDZIALNOSC. PRZEBIEG: W REJONIE LOTNISKA EPSY WYSTEPUJA I W DALSZYM CIAGU PROGNOZOWANE SA NISKIE CHMURY O PODSTAWIE 200-500 FT W ILOSCI BKN/OVC ORAZ SLABA WIDZIALNOSC 1000-2000M OGRANICZONA PRZEZ SILNE ZAMGLENIE ORAZ OPAD MZAWKI. OPRACOWAL: LUKASZ NAPIORKOWSKI DNIA 26-11-2020 18:10 UTC NR OSTRZEZENIE: 319/2020.